createdAt,value
2019-03-17T00:02:02.676Z,10.70
2019-03-17T00:04:32.045Z,10.60
2019-03-17T00:07:01.079Z,10.60
2019-03-17T00:09:30.460Z,10.70
2019-03-17T00:11:59.571Z,10.70
2019-03-17T00:14:28.643Z,10.70
2019-03-17T00:16:57.643Z,10.70
2019-03-17T00:19:27.714Z,10.70
2019-03-17T00:21:56.976Z,10.70
2019-03-17T00:24:26.178Z,10.70
2019-03-17T00:26:55.218Z,10.60
2019-03-17T00:29:24.207Z,10.70
2019-03-17T00:31:53.406Z,10.60
2019-03-17T00:34:22.582Z,10.70
2019-03-17T00:36:51.748Z,10.60
2019-03-17T00:39:20.748Z,10.60
2019-03-17T00:41:49.855Z,10.60
2019-03-17T00:44:19.041Z,10.60
2019-03-17T00:46:48.151Z,10.60
2019-03-17T00:49:17.346Z,10.60
2019-03-17T00:51:48.817Z,10.60
2019-03-17T00:54:17.835Z,10.60
2019-03-17T00:56:46.903Z,10.60
2019-03-17T00:59:16.082Z,10.60
2019-03-17T01:01:46.182Z,10.60
2019-03-17T01:04:15.510Z,10.60
2019-03-17T01:06:44.723Z,10.60
2019-03-17T01:09:13.819Z,10.50
2019-03-17T01:11:42.911Z,10.50
2019-03-17T01:14:12.362Z,10.50
2019-03-17T01:16:41.538Z,10.50
2019-03-17T01:19:10.789Z,10.50
2019-03-17T01:21:40.243Z,10.50
2019-03-17T01:24:10.448Z,10.50
2019-03-17T01:26:39.536Z,10.50
2019-03-17T01:29:08.627Z,10.50
2019-03-17T01:31:37.972Z,10.50
2019-03-17T01:34:07.399Z,10.50
2019-03-17T01:36:39.072Z,10.50
2019-03-17T01:39:08.577Z,10.50
2019-03-17T01:41:37.903Z,10.50
2019-03-17T01:44:07.639Z,10.50
2019-03-17T01:46:37.272Z,10.50
2019-03-17T01:49:06.319Z,10.50
2019-03-17T01:51:35.574Z,10.50
2019-03-17T01:54:04.615Z,10.60
2019-03-17T01:56:33.562Z,10.60
2019-03-17T01:59:02.678Z,10.60
2019-03-17T02:01:31.701Z,10.60
2019-03-17T02:04:00.790Z,10.60
2019-03-17T02:06:29.873Z,10.70
2019-03-17T02:08:59.067Z,10.70
2019-03-17T02:11:28.124Z,10.70
2019-03-17T02:13:57.155Z,10.70
2019-03-17T02:16:26.194Z,10.70
2019-03-17T02:18:55.536Z,10.60
2019-03-17T02:21:24.601Z,10.70
2019-03-17T02:23:53.640Z,10.70
2019-03-17T02:26:22.736Z,10.70
2019-03-17T02:28:51.784Z,10.70
2019-03-17T02:31:20.840Z,10.70
2019-03-17T02:33:50.050Z,10.70
2019-03-17T02:36:19.202Z,10.80
2019-03-17T02:38:48.300Z,10.80
2019-03-17T02:41:17.496Z,10.80
2019-03-17T02:43:46.830Z,10.80
2019-03-17T02:46:15.915Z,10.80
2019-03-17T02:48:44.948Z,10.80
2019-03-17T02:51:13.931Z,10.80
2019-03-17T02:53:43.126Z,10.80
2019-03-17T02:56:12.078Z,10.70
2019-03-17T02:58:41.249Z,10.80
2019-03-17T03:01:10.338Z,10.80
2019-03-17T03:03:39.482Z,10.80
2019-03-17T03:06:08.412Z,10.70
2019-03-17T03:08:37.396Z,10.70
2019-03-17T03:11:06.491Z,10.70
2019-03-17T03:13:35.513Z,10.70
2019-03-17T03:16:06.012Z,10.80
2019-03-17T03:18:35.417Z,10.70
2019-03-17T03:21:04.565Z,10.80
2019-03-17T03:23:33.772Z,10.80
2019-03-17T03:26:02.747Z,10.80
2019-03-17T03:28:31.901Z,10.80
2019-03-17T03:31:00.921Z,10.70
2019-03-17T03:33:30.035Z,10.70
2019-03-17T03:36:10.657Z,10.70
2019-03-17T03:38:29.865Z,10.70
2019-03-17T03:40:59.083Z,10.70
2019-03-17T03:43:28.089Z,10.70
2019-03-17T03:45:57.190Z,10.70
2019-03-17T03:48:26.203Z,10.70
2019-03-17T03:50:55.891Z,10.70
2019-03-17T03:53:24.927Z,10.70
2019-03-17T03:55:54.140Z,10.70
2019-03-17T03:58:23.293Z,10.70
2019-03-17T04:00:53.492Z,10.70
2019-03-17T04:03:22.456Z,10.70
2019-03-17T04:05:51.868Z,10.60
2019-03-17T04:08:20.955Z,10.60
2019-03-17T04:10:50.239Z,10.70
2019-03-17T04:13:19.337Z,10.70
2019-03-17T04:15:48.499Z,10.70
2019-03-17T04:18:17.473Z,10.70
2019-03-17T04:20:46.610Z,10.60
2019-03-17T04:23:15.680Z,10.60
2019-03-17T04:25:45.274Z,10.60
2019-03-17T04:28:15.048Z,10.60
2019-03-17T04:30:44.117Z,10.60
2019-03-17T04:33:13.273Z,10.60
2019-03-17T04:35:42.327Z,10.50
2019-03-17T04:38:11.320Z,10.40
2019-03-17T04:40:40.311Z,10.40
2019-03-17T04:43:09.323Z,10.30
2019-03-17T04:45:38.344Z,10.20
2019-03-17T04:48:07.436Z,10.10
2019-03-17T04:50:36.456Z,10.10
2019-03-17T04:53:05.566Z,10.00
2019-03-17T04:55:34.516Z,10.00
2019-03-17T04:58:03.543Z,9.90
2019-03-17T05:00:32.548Z,9.90
2019-03-17T05:03:01.642Z,9.90
2019-03-17T05:05:30.908Z,9.90
2019-03-17T05:07:59.932Z,9.80
2019-03-17T05:10:28.960Z,9.80
2019-03-17T05:12:58.051Z,9.80
2019-03-17T05:15:26.970Z,9.70
2019-03-17T05:17:56.147Z,9.70
2019-03-17T05:20:25.131Z,9.60
2019-03-17T05:22:54.168Z,9.60
2019-03-17T05:25:23.231Z,9.60
2019-03-17T05:27:52.183Z,9.50
2019-03-17T05:30:21.231Z,9.50
2019-03-17T05:32:50.252Z,9.50
2019-03-17T05:35:19.408Z,9.50
2019-03-17T05:37:48.464Z,9.40
2019-03-17T05:40:17.692Z,9.30
2019-03-17T05:42:46.755Z,9.30
2019-03-17T05:45:15.691Z,9.30
2019-03-17T05:47:44.699Z,9.30
2019-03-17T05:50:13.931Z,9.30
2019-03-17T05:52:42.916Z,9.30
2019-03-17T05:55:12.072Z,9.20
2019-03-17T05:57:41.147Z,9.20
2019-03-17T06:00:12.183Z,9.20
2019-03-17T06:02:41.259Z,9.10
2019-03-17T06:05:10.479Z,9.10
2019-03-17T06:07:39.889Z,9.10
2019-03-17T06:10:08.998Z,9.10
2019-03-17T06:12:38.298Z,9.10
2019-03-17T06:15:08.500Z,9.10
2019-03-17T06:17:37.496Z,9.10
2019-03-17T06:20:07.679Z,9.10
2019-03-17T06:22:36.840Z,8.50
2019-03-17T06:25:06.852Z,8.30
2019-03-17T06:27:36.139Z,8.00
2019-03-17T06:30:06.689Z,7.80
2019-03-17T06:32:35.991Z,7.70
2019-03-17T06:35:06.060Z,7.70
2019-03-17T06:37:35.480Z,7.60
2019-03-17T06:40:05.114Z,7.50
2019-03-17T06:42:34.180Z,7.20
2019-03-17T06:45:03.321Z,7.20
2019-03-17T06:47:32.370Z,7.20
2019-03-17T06:50:01.370Z,7.10
2019-03-17T06:52:30.327Z,7.00
2019-03-17T06:55:02.028Z,6.90
2019-03-17T06:57:31.313Z,6.90
2019-03-17T07:00:00.433Z,6.90
2019-03-17T07:02:29.403Z,6.80
2019-03-17T07:04:58.395Z,6.80
2019-03-17T07:07:27.360Z,6.80
2019-03-17T07:09:56.283Z,6.60
2019-03-17T07:12:25.343Z,6.60
2019-03-17T07:14:54.411Z,6.70
2019-03-17T07:17:23.487Z,6.70
2019-03-17T07:19:52.567Z,6.70
2019-03-17T07:22:21.552Z,6.80
2019-03-17T07:24:50.701Z,6.80
2019-03-17T07:27:19.963Z,6.90
2019-03-17T07:29:49.590Z,7.00
2019-03-17T07:32:18.684Z,7.10
2019-03-17T07:34:47.775Z,7.10
2019-03-17T07:37:16.834Z,7.10
2019-03-17T07:39:45.787Z,7.20
2019-03-17T07:42:15.021Z,7.20
2019-03-17T07:44:43.997Z,7.20
2019-03-17T07:47:12.991Z,7.20
2019-03-17T07:49:42.139Z,7.20
2019-03-17T07:52:11.238Z,7.10
2019-03-17T07:54:40.205Z,7.00
2019-03-17T07:57:09.273Z,7.00
2019-03-17T07:59:38.326Z,7.10
2019-03-17T08:02:07.471Z,7.10
2019-03-17T08:04:42.531Z,7.10
2019-03-17T08:07:07.171Z,7.20
2019-03-17T08:09:36.244Z,7.20
2019-03-17T08:12:05.387Z,7.40
2019-03-17T08:14:34.276Z,7.60
2019-03-17T08:17:03.350Z,7.60
2019-03-17T08:19:32.446Z,7.60
2019-03-17T08:22:01.510Z,7.60
2019-03-17T08:24:30.557Z,7.50
2019-03-17T08:26:59.715Z,7.50
2019-03-17T08:29:28.703Z,7.50
2019-03-17T08:31:57.720Z,7.60
2019-03-17T08:34:26.840Z,7.50
2019-03-17T08:36:55.833Z,7.60
2019-03-17T08:39:24.787Z,7.70
2019-03-17T08:41:53.927Z,7.70
2019-03-17T08:44:22.992Z,7.60
2019-03-17T08:46:51.892Z,7.60
2019-03-17T08:49:20.859Z,7.60
2019-03-17T08:51:49.758Z,7.60
2019-03-17T08:54:18.847Z,7.70
2019-03-17T08:56:47.835Z,7.70
2019-03-17T08:59:16.829Z,7.70
2019-03-17T09:01:47.556Z,7.70
2019-03-17T09:04:16.612Z,7.70
2019-03-17T09:06:45.852Z,7.70
2019-03-17T09:09:14.776Z,7.70
2019-03-17T09:11:43.951Z,7.60
2019-03-17T09:14:13.119Z,7.70
2019-03-17T09:16:42.160Z,7.80
2019-03-17T09:19:11.282Z,7.90
2019-03-17T09:21:40.408Z,7.90
2019-03-17T09:24:17.012Z,7.80
2019-03-17T09:26:40.225Z,7.80
2019-03-17T09:29:09.329Z,7.90
2019-03-17T09:31:38.397Z,7.90
2019-03-17T09:34:07.333Z,7.80
2019-03-17T09:36:37.309Z,7.80
2019-03-17T09:39:07.391Z,7.90
2019-03-17T09:41:36.368Z,8.00
2019-03-17T09:44:05.544Z,8.10
2019-03-17T09:46:34.711Z,8.30
2019-03-17T09:49:03.771Z,8.50
2019-03-17T09:51:32.847Z,8.60
2019-03-17T09:54:01.863Z,8.80
2019-03-17T09:56:30.838Z,9.00
2019-03-17T09:58:59.930Z,9.20
2019-03-17T10:01:28.920Z,9.60
2019-03-17T10:03:58.041Z,10.40
2019-03-17T10:06:26.950Z,11.30
2019-03-17T10:09:00.267Z,12.40
2019-03-17T10:11:26.648Z,13.60
2019-03-17T10:13:55.737Z,13.80
2019-03-17T10:16:24.733Z,14.10
2019-03-17T10:18:53.789Z,14.00
2019-03-17T10:21:22.763Z,14.00
2019-03-17T10:23:51.800Z,14.40
2019-03-17T10:26:20.776Z,14.90
2019-03-17T10:28:49.990Z,15.00
2019-03-17T10:31:19.019Z,14.70
2019-03-17T10:33:48.131Z,14.70
2019-03-17T10:36:17.792Z,14.40
2019-03-17T10:38:46.760Z,14.10
2019-03-17T10:41:15.754Z,13.50
2019-03-17T10:43:44.872Z,12.80
2019-03-17T10:46:13.921Z,12.20
2019-03-17T10:48:42.965Z,11.90
2019-03-17T10:51:12.079Z,11.50
2019-03-17T10:53:41.087Z,11.20
2019-03-17T10:56:10.597Z,10.90
2019-03-17T10:58:39.836Z,10.70
2019-03-17T11:01:08.997Z,10.40
2019-03-17T11:03:38.079Z,10.30
2019-03-17T11:06:07.192Z,10.30
2019-03-17T11:08:36.145Z,10.40
2019-03-17T11:11:05.339Z,10.40
2019-03-17T11:13:34.465Z,10.40
2019-03-17T11:16:03.494Z,10.30
2019-03-17T11:18:32.529Z,10.20
2019-03-17T11:21:01.546Z,10.00
2019-03-17T11:23:30.613Z,9.80
2019-03-17T11:25:59.734Z,9.50
2019-03-17T11:28:28.779Z,9.20
2019-03-17T11:30:59.614Z,9.00
2019-03-17T11:33:28.737Z,9.00
2019-03-17T11:35:57.751Z,9.10
2019-03-17T11:38:26.807Z,9.20
2019-03-17T11:40:55.897Z,9.20
2019-03-17T11:43:24.951Z,9.10
2019-03-17T11:45:53.982Z,9.10
2019-03-17T11:48:23.077Z,9.50
2019-03-17T11:50:52.193Z,10.10
2019-03-17T11:53:21.270Z,10.90
2019-03-17T11:55:50.505Z,11.60
2019-03-17T11:58:19.463Z,11.90
2019-03-17T12:00:48.460Z,11.90
2019-03-17T12:03:18.469Z,11.60
2019-03-17T12:05:47.392Z,11.30
2019-03-17T12:08:21.238Z,10.70
2019-03-17T12:10:50.288Z,10.20
2019-03-17T12:13:23.379Z,9.90
2019-03-17T12:15:52.371Z,9.60
2019-03-17T12:18:21.974Z,9.40
2019-03-17T12:20:50.860Z,9.30
2019-03-17T12:23:20.790Z,9.10
2019-03-17T12:25:49.815Z,9.00
2019-03-17T12:28:18.863Z,9.00
2019-03-17T12:30:47.874Z,8.70
2019-03-17T12:33:16.901Z,8.40
2019-03-17T12:35:45.920Z,8.20
2019-03-17T12:38:14.972Z,8.10
2019-03-17T12:40:44.129Z,8.00
2019-03-17T12:43:13.159Z,7.90
2019-03-17T12:45:42.161Z,7.70
2019-03-17T12:48:11.120Z,7.50
2019-03-17T12:50:40.260Z,7.40
2019-03-17T12:53:09.225Z,7.40
2019-03-17T12:55:38.207Z,7.50
2019-03-17T12:58:07.246Z,7.60
2019-03-17T13:00:36.315Z,7.90
2019-03-17T13:03:05.368Z,8.20
2019-03-17T13:05:34.363Z,8.50
2019-03-17T13:08:03.428Z,8.70
2019-03-17T13:10:32.564Z,8.70
2019-03-17T13:13:01.569Z,8.70
2019-03-17T13:15:30.504Z,8.70
2019-03-17T13:17:59.460Z,8.70
2019-03-17T13:20:29.769Z,8.60
2019-03-17T13:22:58.943Z,8.60
2019-03-17T13:25:28.059Z,8.60
2019-03-17T13:27:57.041Z,8.70
2019-03-17T13:30:26.121Z,8.80
2019-03-17T13:32:55.280Z,8.80
2019-03-17T13:35:24.359Z,8.90
2019-03-17T13:37:53.320Z,9.00
2019-03-17T13:40:30.204Z,9.00
2019-03-17T13:42:53.020Z,9.00
2019-03-17T13:45:24.963Z,9.20
2019-03-17T13:47:57.034Z,9.30
2019-03-17T13:50:25.995Z,9.30
2019-03-17T13:52:55.130Z,9.30
2019-03-17T13:55:24.270Z,9.40
2019-03-17T13:57:54.698Z,9.50
2019-03-17T14:00:23.827Z,9.60
2019-03-17T14:02:52.972Z,9.60
2019-03-17T14:05:22.199Z,9.80
2019-03-17T14:07:51.424Z,9.90
2019-03-17T14:10:21.243Z,9.90
2019-03-17T14:12:50.921Z,9.90
2019-03-17T14:15:23.591Z,9.70
2019-03-17T14:17:53.165Z,9.50
2019-03-17T14:20:22.603Z,9.30
2019-03-17T14:22:52.322Z,9.20
2019-03-17T14:25:24.542Z,9.30
2019-03-17T14:27:53.727Z,9.30
2019-03-17T14:30:23.501Z,9.20
2019-03-17T14:32:52.633Z,9.40
2019-03-17T14:35:22.096Z,9.50
2019-03-17T14:37:51.120Z,9.60
2019-03-17T14:40:20.274Z,9.60
2019-03-17T14:42:49.386Z,9.50
2019-03-17T14:45:18.482Z,9.50
2019-03-17T14:47:47.683Z,9.40
2019-03-17T14:50:17.696Z,9.50
2019-03-17T14:52:46.831Z,9.50
2019-03-17T14:55:16.002Z,9.40
2019-03-17T14:57:45.111Z,9.30
2019-03-17T15:00:16.121Z,9.20
2019-03-17T15:02:45.627Z,9.20
2019-03-17T15:05:15.049Z,9.20
2019-03-17T15:07:44.156Z,9.10
2019-03-17T15:10:15.176Z,9.20
2019-03-17T15:12:45.109Z,9.10
2019-03-17T15:15:15.332Z,9.10
2019-03-17T15:17:44.463Z,9.10
2019-03-17T15:20:15.469Z,9.10
2019-03-17T15:22:44.521Z,9.00
2019-03-17T15:25:13.763Z,9.00
2019-03-17T15:27:42.793Z,9.00
2019-03-17T15:30:14.637Z,8.90
2019-03-17T15:32:43.705Z,8.80
2019-03-17T15:35:13.100Z,8.90
2019-03-17T15:37:42.492Z,8.90
2019-03-17T15:40:12.059Z,9.00
2019-03-17T15:42:41.301Z,9.10
2019-03-17T15:45:12.186Z,9.20
2019-03-17T15:47:41.567Z,9.20
2019-03-17T15:50:11.899Z,9.30
2019-03-17T15:52:41.300Z,9.30
2019-03-17T15:55:11.489Z,9.20
2019-03-17T15:57:40.700Z,9.20
2019-03-17T16:00:25.101Z,9.20
2019-03-17T16:02:46.988Z,9.20
2019-03-17T16:05:16.099Z,9.20
2019-03-17T16:07:45.291Z,9.20
2019-03-17T16:10:15.391Z,9.40
2019-03-17T16:12:44.612Z,9.50
2019-03-17T16:15:14.322Z,9.50
2019-03-17T16:17:43.449Z,9.40
2019-03-17T16:20:14.648Z,9.40
2019-03-17T16:22:47.992Z,9.40
2019-03-17T16:25:17.726Z,9.30
2019-03-17T16:27:47.157Z,9.20
2019-03-17T16:30:18.442Z,9.10
2019-03-17T16:32:47.547Z,9.00
2019-03-17T16:35:16.867Z,8.90
2019-03-17T16:37:46.230Z,8.80
2019-03-17T16:40:16.747Z,8.70
2019-03-17T16:42:46.163Z,8.70
2019-03-17T16:45:17.554Z,8.70
2019-03-17T16:47:46.699Z,8.60
2019-03-17T16:50:16.928Z,8.60
2019-03-17T16:52:46.321Z,8.60
2019-03-17T16:55:15.506Z,8.60
2019-03-17T16:57:44.710Z,8.50
2019-03-17T17:00:18.844Z,8.40
2019-03-17T17:02:47.158Z,8.30
2019-03-17T17:05:17.056Z,8.30
2019-03-17T17:07:46.496Z,8.20
2019-03-17T17:10:18.700Z,8.20
2019-03-17T17:12:48.104Z,8.10
2019-03-17T17:15:21.963Z,8.10
2019-03-17T17:17:51.611Z,8.10
2019-03-17T17:20:23.898Z,8.00
2019-03-17T17:22:53.110Z,8.00
2019-03-17T17:25:22.295Z,8.00
2019-03-17T17:27:51.525Z,7.90
2019-03-17T17:30:20.779Z,7.80
2019-03-17T17:32:49.969Z,7.80
2019-03-17T17:35:19.285Z,7.70
2019-03-17T17:37:48.546Z,7.70
2019-03-17T17:40:18.293Z,7.70
2019-03-17T17:42:47.700Z,7.60
2019-03-17T17:45:17.077Z,7.60
2019-03-17T17:47:46.192Z,7.60
2019-03-17T17:50:16.467Z,7.50
2019-03-17T17:52:45.723Z,7.60
2019-03-17T17:55:14.709Z,7.60
2019-03-17T17:57:43.795Z,7.50
2019-03-17T18:00:15.927Z,7.50
2019-03-17T18:02:44.845Z,7.50
2019-03-17T18:05:13.985Z,7.50
2019-03-17T18:07:45.597Z,7.50
2019-03-17T18:10:14.806Z,7.40
2019-03-17T18:12:43.969Z,7.40
2019-03-17T18:15:14.623Z,7.40
2019-03-17T18:17:44.051Z,7.30
2019-03-17T18:20:13.756Z,7.30
2019-03-17T18:22:43.783Z,7.30
2019-03-17T18:25:13.649Z,7.30
2019-03-17T18:27:43.162Z,7.30
2019-03-17T18:30:14.997Z,7.20
2019-03-17T18:32:51.625Z,7.20
2019-03-17T18:35:17.324Z,7.20
2019-03-17T18:37:50.790Z,7.20
2019-03-17T18:40:18.855Z,7.10
2019-03-17T18:42:49.168Z,7.10
2019-03-17T18:45:20.201Z,7.00
2019-03-17T18:47:53.609Z,6.90
2019-03-17T18:50:22.754Z,6.90
2019-03-17T18:52:53.412Z,6.90
2019-03-17T18:55:23.636Z,6.90
2019-03-17T18:57:54.663Z,6.80
2019-03-17T19:00:24.071Z,6.80
2019-03-17T19:02:53.370Z,6.80
2019-03-17T19:05:23.160Z,6.80
2019-03-17T19:07:56.291Z,6.70
2019-03-17T19:10:25.447Z,6.70
2019-03-17T19:12:54.676Z,6.70
2019-03-17T19:15:24.018Z,6.70
2019-03-17T19:17:53.128Z,6.70
2019-03-17T19:20:24.067Z,6.60
2019-03-17T19:22:53.293Z,6.60
2019-03-17T19:25:24.647Z,6.50
2019-03-17T19:27:54.976Z,6.40
2019-03-17T19:30:25.778Z,6.30
2019-03-17T19:32:59.144Z,6.30
2019-03-17T19:35:28.414Z,6.30
2019-03-17T19:38:01.050Z,6.20
2019-03-17T19:40:30.517Z,6.10
2019-03-17T19:42:59.925Z,6.10
2019-03-17T19:45:29.449Z,6.10
2019-03-17T19:48:03.427Z,6.00
2019-03-17T19:50:32.483Z,6.00
2019-03-17T19:53:02.220Z,5.90
2019-03-17T19:55:31.291Z,5.90
2019-03-17T19:58:03.112Z,5.80
2019-03-17T20:00:32.143Z,5.80
2019-03-17T20:03:01.177Z,5.80
2019-03-17T20:05:30.252Z,5.80
2019-03-17T20:07:59.344Z,5.80
2019-03-17T20:10:28.459Z,5.80
2019-03-17T20:13:10.269Z,5.80
2019-03-17T20:15:28.211Z,5.70
2019-03-17T20:17:57.653Z,5.70
2019-03-17T20:20:26.579Z,5.70
2019-03-17T20:22:55.935Z,5.70
2019-03-17T20:25:24.976Z,5.70
2019-03-17T20:27:53.919Z,5.70
2019-03-17T20:30:23.120Z,5.70
2019-03-17T20:32:52.282Z,5.70
2019-03-17T20:35:22.353Z,5.60
2019-03-17T20:37:52.863Z,5.60
2019-03-17T20:40:22.642Z,5.50
2019-03-17T20:42:52.383Z,5.50
2019-03-17T20:45:26.351Z,5.50
2019-03-17T20:47:57.888Z,5.40
2019-03-17T20:50:28.787Z,5.30
2019-03-17T20:52:58.601Z,5.30
2019-03-17T20:55:29.998Z,5.30
2019-03-17T20:57:59.595Z,5.20
2019-03-17T21:00:29.764Z,5.20
2019-03-17T21:02:58.908Z,5.20
2019-03-17T21:05:28.416Z,5.20
2019-03-17T21:07:57.616Z,5.10
2019-03-17T21:10:26.763Z,5.10
2019-03-17T21:13:02.416Z,5.10
2019-03-17T21:15:35.859Z,5.10
2019-03-17T21:18:05.056Z,5.10
2019-03-17T21:20:36.443Z,5.10
2019-03-17T21:23:06.469Z,5.10
2019-03-17T21:25:37.678Z,5.10
2019-03-17T21:28:08.586Z,5.10
2019-03-17T21:30:37.824Z,5.10
2019-03-17T21:33:09.779Z,5.10
2019-03-17T21:35:38.865Z,5.10
2019-03-17T21:38:08.057Z,5.00
2019-03-17T21:40:37.184Z,5.00
2019-03-17T21:43:06.355Z,5.00
2019-03-17T21:45:35.495Z,4.90
2019-03-17T21:48:04.663Z,4.90
2019-03-17T21:50:33.608Z,4.90
2019-03-17T21:53:02.735Z,4.90
2019-03-17T21:55:31.915Z,4.90
2019-03-17T21:58:07.633Z,4.90
2019-03-17T22:00:31.869Z,4.90
2019-03-17T22:03:01.016Z,4.90
2019-03-17T22:05:29.935Z,4.90
2019-03-17T22:07:59.112Z,4.90
2019-03-17T22:10:29.131Z,4.90
2019-03-17T22:12:59.702Z,4.90
2019-03-17T22:15:28.715Z,4.90
2019-03-17T22:17:57.771Z,4.90
2019-03-17T22:20:26.883Z,4.80
2019-03-17T22:22:56.806Z,4.90
2019-03-17T22:25:25.899Z,4.90
2019-03-17T22:28:07.479Z,4.90
2019-03-17T22:30:25.655Z,4.90
2019-03-17T22:32:54.715Z,4.90
2019-03-17T22:35:23.818Z,5.00
2019-03-17T22:37:52.719Z,5.00
2019-03-17T22:40:21.752Z,5.00
2019-03-17T22:42:50.790Z,5.00
2019-03-17T22:45:19.884Z,5.10
2019-03-17T22:47:49.146Z,5.10
2019-03-17T22:50:18.377Z,5.10
2019-03-17T22:52:47.449Z,5.10
2019-03-17T22:55:16.685Z,5.20
2019-03-17T22:57:45.759Z,5.10
2019-03-17T23:00:17.578Z,5.20
2019-03-17T23:02:47.630Z,5.20
2019-03-17T23:05:16.766Z,5.20
2019-03-17T23:07:45.913Z,5.20
2019-03-17T23:10:15.100Z,5.30
2019-03-17T23:12:44.101Z,5.30
2019-03-17T23:15:13.306Z,5.30
2019-03-17T23:17:42.372Z,5.30
2019-03-17T23:20:11.771Z,5.30
2019-03-17T23:22:40.727Z,5.30
2019-03-17T23:25:10.315Z,5.30
2019-03-17T23:27:41.206Z,5.30
2019-03-17T23:30:11.234Z,5.30
2019-03-17T23:32:40.217Z,5.30
2019-03-17T23:35:10.794Z,5.30
2019-03-17T23:37:39.763Z,5.30
2019-03-17T23:40:09.942Z,5.30
2019-03-17T23:42:39.642Z,5.30
2019-03-17T23:45:13.278Z,5.30
2019-03-17T23:47:42.498Z,5.30
2019-03-17T23:50:12.177Z,5.30
2019-03-17T23:52:41.221Z,5.40
2019-03-17T23:55:11.528Z,5.40
2019-03-17T23:57:40.670Z,5.40
